32  °C
Temperature
90  °F
Temperature
75  °F
 Dewpoint
24  °C
  Dewpoint
63  %
 Humidity
  Temperature
5  km/h
Wind Speed
3  kts
Wind Speed
3  mph
Wind Speed
1.3  m/s
Wind Speed
Calm
Due North

Wind Speed
Partly Cloudy
Conditions
Pressure 1009.92 (hPa) - 29.82 (inHG)
Visibility 10.0 (km) - 6.2 (mi)

Sky Conditions
WSSL
Location Seletar 6 km (3.73 mi)
Metar :WSSL 250500Z VRB03KT 9999 FEW016 SCT020TCU BKN300 32/24 Q1010
Mon 25th March 13:00 pm

Nearest Airport
https://www.checkwx.com/weather/WSSL
  Metar Aviation API Data Provided by https://www.checkwx.com/ Original CSS/SVG/PHP scripts by weather34.com © 2015-2019